sensor_id;sensor_type;location;lat;lon;timestamp;pressure;altitude;pressure_sealevel;temperature;humidity
26531;BME280;14201;43.188;24.160;2023-10-13T00:01:54;100001.91;;;13.32;69.70
26531;BME280;14201;43.188;24.160;2023-10-13T00:04:22;99999.34;;;13.33;69.95
26531;BME280;14201;43.188;24.160;2023-10-13T00:06:52;99990.53;;;13.31;70.10
26531;BME280;14201;43.188;24.160;2023-10-13T00:09:19;99994.78;;;13.29;70.01
26531;BME280;14201;43.188;24.160;2023-10-13T00:11:49;99998.97;;;13.24;70.30
26531;BME280;14201;43.188;24.160;2023-10-13T00:14:14;99996.13;;;13.18;71.19
26531;BME280;14201;43.188;24.160;2023-10-13T00:16:42;99990.66;;;13.12;70.95
26531;BME280;14201;43.188;24.160;2023-10-13T00:19:08;99995.78;;;13.09;70.84
26531;BME280;14201;43.188;24.160;2023-10-13T00:21:38;99985.19;;;13.06;71.13
26531;BME280;14201;43.188;24.160;2023-10-13T00:24:04;99977.34;;;13.06;71.09
26531;BME280;14201;43.188;24.160;2023-10-13T00:26:37;99983.19;;;12.98;70.87
26531;BME280;14201;43.188;24.160;2023-10-13T00:29:04;99989.34;;;13.00;70.52
26531;BME280;14201;43.188;24.160;2023-10-13T00:31:32;99990.22;;;12.99;70.63
26531;BME280;14201;43.188;24.160;2023-10-13T00:34:02;99989.34;;;13.00;70.63
26531;BME280;14201;43.188;24.160;2023-10-13T00:36:40;99996.38;;;13.02;71.19
26531;BME280;14201;43.188;24.160;2023-10-13T00:39:26;99996.25;;;12.98;72.17
26531;BME280;14201;43.188;24.160;2023-10-13T00:41:54;99994.34;;;12.94;71.86
26531;BME280;14201;43.188;24.160;2023-10-13T00:44:32;99992.59;;;12.93;72.13
26531;BME280;14201;43.188;24.160;2023-10-13T00:47:11;99993.47;;;12.94;71.64
26531;BME280;14201;43.188;24.160;2023-10-13T00:49:44;99989.13;;;12.94;71.65
26531;BME280;14201;43.188;24.160;2023-10-13T00:52:12;99990.00;;;12.95;71.78
26531;BME280;14201;43.188;24.160;2023-10-13T00:54:42;99989.03;;;12.91;70.32
26531;BME280;14201;43.188;24.160;2023-10-13T00:57:14;99990.56;;;12.86;70.78
26531;BME280;14201;43.188;24.160;2023-10-13T00:59:55;99989.53;;;12.83;71.34
26531;BME280;14201;43.188;24.160;2023-10-13T01:02:21;99993.75;;;12.79;71.70
26531;BME280;14201;43.188;24.160;2023-10-13T01:04:59;99993.91;;;12.82;71.60
26531;BME280;14201;43.188;24.160;2023-10-13T01:07:24;99980.34;;;12.70;72.24
26531;BME280;14201;43.188;24.160;2023-10-13T01:09:50;99989.38;;;12.78;71.61
26531;BME280;14201;43.188;24.160;2023-10-13T01:12:15;99995.25;;;12.72;71.73
26531;BME280;14201;43.188;24.160;2023-10-13T01:14:41;100002.09;;;12.69;71.82
26531;BME280;14201;43.188;24.160;2023-10-13T01:17:06;100000.47;;;12.72;72.27
26531;BME280;14201;43.188;24.160;2023-10-13T01:19:36;99997.88;;;12.72;72.60
26531;BME280;14201;43.188;24.160;2023-10-13T01:22:08;99997.00;;;12.72;72.20
26531;BME280;14201;43.188;24.160;2023-10-13T01:24:33;99995.91;;;12.67;70.82
26531;BME280;14201;43.188;24.160;2023-10-13T01:27:06;100000.91;;;12.60;70.98
26531;BME280;14201;43.188;24.160;2023-10-13T01:29:52;100002.25;;;12.51;71.99
26531;BME280;14201;43.188;24.160;2023-10-13T01:32:23;99994.28;;;12.27;72.69
26531;BME280;14201;43.188;24.160;2023-10-13T01:34:50;99998.56;;;12.25;68.63
26531;BME280;14201;43.188;24.160;2023-10-13T01:37:21;99988.75;;;12.19;68.10
26531;BME280;14201;43.188;24.160;2023-10-13T01:39:47;99983.34;;;12.14;69.14
26531;BME280;14201;43.188;24.160;2023-10-13T01:42:15;99990.16;;;12.11;70.57
26531;BME280;14201;43.188;24.160;2023-10-13T01:44:45;99996.84;;;12.04;70.63
26531;BME280;14201;43.188;24.160;2023-10-13T01:47:10;99995.75;;;11.99;71.66
26531;BME280;14201;43.188;24.160;2023-10-13T01:49:38;99994.81;;;11.97;72.16
26531;BME280;14201;43.188;24.160;2023-10-13T01:52:08;99994.66;;;11.94;72.44
26531;BME280;14201;43.188;24.160;2023-10-13T01:54:36;99988.19;;;11.86;72.99
26531;BME280;14201;43.188;24.160;2023-10-13T01:57:08;99995.94;;;11.84;73.19
26531;BME280;14201;43.188;24.160;2023-10-13T01:59:39;99982.00;;;11.83;72.77
26531;BME280;14201;43.188;24.160;2023-10-13T02:02:09;99988.19;;;11.86;72.94
26531;BME280;14201;43.188;24.160;2023-10-13T02:04:41;99977.25;;;11.73;73.00
26531;BME280;14201;43.188;24.160;2023-10-13T02:07:20;99983.50;;;11.77;73.67
26531;BME280;14201;43.188;24.160;2023-10-13T02:09:46;99988.63;;;11.75;74.87
26531;BME280;14201;43.188;24.160;2023-10-13T02:12:12;99984.22;;;11.74;75.35
26531;BME280;14201;43.188;24.160;2023-10-13T02:14:39;99988.72;;;11.77;75.59
26531;BME280;14201;43.188;24.160;2023-10-13T02:17:07;99995.69;;;11.78;76.27
26531;BME280;14201;43.188;24.160;2023-10-13T02:19:42;99994.66;;;11.74;71.27
26531;BME280;14201;43.188;24.160;2023-10-13T02:22:12;99983.31;;;11.53;69.99
26531;BME280;14201;43.188;24.160;2023-10-13T02:24:49;99993.31;;;11.43;71.34
26531;BME280;14201;43.188;24.160;2023-10-13T02:27:17;100001.09;;;11.42;72.83
26531;BME280;14201;43.188;24.160;2023-10-13T02:29:43;100001.28;;;11.47;74.43
26531;BME280;14201;43.188;24.160;2023-10-13T02:32:11;100005.56;;;11.45;75.52
26531;BME280;14201;43.188;24.160;2023-10-13T02:34:46;100007.72;;;11.55;76.15
26531;BME280;14201;43.188;24.160;2023-10-13T02:37:12;100005.06;;;11.53;76.53
26531;BME280;14201;43.188;24.160;2023-10-13T02:39:39;100003.41;;;11.55;75.80
26531;BME280;14201;43.188;24.160;2023-10-13T02:42:09;99985.44;;;11.42;74.34
26531;BME280;14201;43.188;24.160;2023-10-13T02:44:50;99992.31;;;11.40;74.40
26531;BME280;14201;43.188;24.160;2023-10-13T02:47:16;100002.09;;;11.46;71.44
26531;BME280;14201;43.188;24.160;2023-10-13T02:49:44;100004.31;;;11.36;73.79
26531;BME280;14201;43.188;24.160;2023-10-13T02:52:11;99997.53;;;11.40;75.89
26531;BME280;14201;43.188;24.160;2023-10-13T02:54:38;100006.31;;;11.42;76.33
26531;BME280;14201;43.188;24.160;2023-10-13T02:57:16;100000.69;;;11.33;72.88
26531;BME280;14201;43.188;24.160;2023-10-13T02:59:42;100011.19;;;11.15;75.01
26531;BME280;14201;43.188;24.160;2023-10-13T03:02:21;100014.59;;;11.14;74.91
26531;BME280;14201;43.188;24.160;2023-10-13T03:05:00;100014.88;;;11.20;76.64
26531;BME280;14201;43.188;24.160;2023-10-13T03:07:34;100006.50;;;11.27;76.06
26531;BME280;14201;43.188;24.160;2023-10-13T03:10:02;100016.94;;;11.27;73.85
26531;BME280;14201;43.188;24.160;2023-10-13T03:12:39;100007.31;;;11.26;74.01
26531;BME280;14201;43.188;24.160;2023-10-13T03:15:05;100008.69;;;11.18;74.40
26531;BME280;14201;43.188;24.160;2023-10-13T03:17:40;100008.75;;;11.19;75.16
26531;BME280;14201;43.188;24.160;2023-10-13T03:20:16;100003.34;;;11.15;74.70
26531;BME280;14201;43.188;24.160;2023-10-13T03:22:53;100003.13;;;11.10;74.24
26531;BME280;14201;43.188;24.160;2023-10-13T03:25:18;100001.34;;;11.09;75.01
26531;BME280;14201;43.188;24.160;2023-10-13T03:28:03;99986.66;;;10.92;75.09
26531;BME280;14201;43.188;24.160;2023-10-13T03:30:32;99993.19;;;10.83;76.50
26531;BME280;14201;43.188;24.160;2023-10-13T03:33:08;99998.19;;;10.79;76.71
26531;BME280;14201;43.188;24.160;2023-10-13T03:35:51;99983.25;;;10.75;76.40
26531;BME280;14201;43.188;24.160;2023-10-13T03:38:20;99993.88;;;10.79;76.96
26531;BME280;14201;43.188;24.160;2023-10-13T03:40:52;99982.59;;;10.61;78.81
26531;BME280;14201;43.188;24.160;2023-10-13T03:43:37;99984.28;;;10.24;80.94
26531;BME280;14201;43.188;24.160;2023-10-13T03:46:10;99973.56;;;10.00;82.68
26531;BME280;14201;43.188;24.160;2023-10-13T03:48:36;99970.22;;;10.21;82.35
26531;BME280;14201;43.188;24.160;2023-10-13T03:51:18;99974.66;;;10.40;81.37
26531;BME280;14201;43.188;24.160;2023-10-13T03:53:43;99972.63;;;10.52;81.38
26531;BME280;14201;43.188;24.160;2023-10-13T03:56:21;99971.22;;;10.59;80.39
26531;BME280;14201;43.188;24.160;2023-10-13T03:58:58;99977.06;;;10.73;80.31
26531;BME280;14201;43.188;24.160;2023-10-13T04:01:29;99975.88;;;10.84;80.59
26531;BME280;14201;43.188;24.160;2023-10-13T04:04:13;99974.44;;;10.91;79.87
26531;BME280;14201;43.188;24.160;2023-10-13T04:06:58;99966.69;;;10.92;79.15
26531;BME280;14201;43.188;24.160;2023-10-13T04:09:33;99972.09;;;10.97;78.97
26531;BME280;14201;43.188;24.160;2023-10-13T04:12:00;99966.84;;;10.95;79.14
26531;BME280;14201;43.188;24.160;2023-10-13T04:14:32;99982.47;;;10.95;79.39
26531;BME280;14201;43.188;24.160;2023-10-13T04:17:16;99979.88;;;10.95;79.15
26531;BME280;14201;43.188;24.160;2023-10-13T04:19:49;99982.75;;;11.01;78.98
26531;BME280;14201;43.188;24.160;2023-10-13T04:22:30;99977.81;;;11.08;78.95
26531;BME280;14201;43.188;24.160;2023-10-13T04:25:21;99978.69;;;11.08;79.58
26531;BME280;14201;43.188;24.160;2023-10-13T04:28:05;99983.31;;;11.14;78.68
26531;BME280;14201;43.188;24.160;2023-10-13T04:30:48;99989.56;;;11.17;78.96
26531;BME280;14201;43.188;24.160;2023-10-13T04:33:14;100000.78;;;11.16;78.49
26531;BME280;14201;43.188;24.160;2023-10-13T04:38:46;100000.94;;;11.19;76.80
26531;BME280;14201;43.188;24.160;2023-10-13T04:41:40;100000.88;;;11.18;76.01
26531;BME280;14201;43.188;24.160;2023-10-13T04:44:16;100005.81;;;11.12;76.50
26531;BME280;14201;43.188;24.160;2023-10-13T04:47:01;100015.88;;;11.04;74.41
26531;BME280;14201;43.188;24.160;2023-10-13T04:49:28;100019.66;;;11.11;75.07
26531;BME280;14201;43.188;24.160;2023-10-13T04:52:04;100021.59;;;11.15;75.42
26531;BME280;14201;43.188;24.160;2023-10-13T04:54:43;100030.50;;;11.20;75.48
26531;BME280;14201;43.188;24.160;2023-10-13T04:57:25;100022.69;;;11.20;74.21
26531;BME280;14201;43.188;24.160;2023-10-13T05:00:09;100026.53;;;11.28;75.44
26531;BME280;14201;43.188;24.160;2023-10-13T05:07:35;100041.72;;;11.56;77.19
26531;BME280;14201;43.188;24.160;2023-10-13T05:10:19;100045.22;;;11.76;76.62
26531;BME280;14201;43.188;24.160;2023-10-13T05:13:03;100043.56;;;11.78;75.15
26531;BME280;14201;43.188;24.160;2023-10-13T05:15:49;100054.41;;;11.88;74.12
26531;BME280;14201;43.188;24.160;2023-10-13T05:18:33;100061.16;;;12.02;74.20
26531;BME280;14201;43.188;24.160;2023-10-13T05:21:18;100066.50;;;12.05;74.05
26531;BME280;14201;43.188;24.160;2023-10-13T05:24:03;100064.84;;;12.07;73.73
26531;BME280;14201;43.188;24.160;2023-10-13T05:26:47;100075.28;;;12.07;74.67
26531;BME280;14201;43.188;24.160;2023-10-13T05:29:31;100075.25;;;12.27;73.99
26531;BME280;14201;43.188;24.160;2023-10-13T05:32:15;100087.38;;;12.46;74.82
26531;BME280;14201;43.188;24.160;2023-10-13T05:34:59;100080.97;;;12.60;75.71
26531;BME280;14201;43.188;24.160;2023-10-13T05:37:43;100088.09;;;12.85;77.33
26531;BME280;14201;43.188;24.160;2023-10-13T05:40:27;100088.38;;;13.14;77.38
26531;BME280;14201;43.188;24.160;2023-10-13T05:43:11;100091.84;;;13.35;77.06
26531;BME280;14201;43.188;24.160;2023-10-13T05:46:03;100092.00;;;13.63;76.98
26531;BME280;14201;43.188;24.160;2023-10-13T05:48:48;100091.56;;;13.74;74.70
26531;BME280;14201;43.188;24.160;2023-10-13T05:51:26;100099.78;;;14.08;73.20
26531;BME280;14201;43.188;24.160;2023-10-13T05:54:01;100092.97;;;14.38;71.20
26531;BME280;14201;43.188;24.160;2023-10-13T05:56:47;100089.63;;;14.68;70.28
26531;BME280;14201;43.188;24.160;2023-10-13T05:59:32;100091.88;;;14.83;70.47
26531;BME280;14201;43.188;24.160;2023-10-13T06:02:18;100095.53;;;15.17;69.03
26531;BME280;14201;43.188;24.160;2023-10-13T06:05:03;100097.81;;;15.33;68.02
26531;BME280;14201;43.188;24.160;2023-10-13T06:07:47;100095.13;;;15.61;68.00
26531;BME280;14201;43.188;24.160;2023-10-13T06:10:31;100096.56;;;15.80;67.16
26531;BME280;14201;43.188;24.160;2023-10-13T06:13:15;100098.91;;;16.01;68.06
26531;BME280;14201;43.188;24.160;2023-10-13T06:15:59;100097.34;;;16.07;67.10
26531;BME280;14201;43.188;24.160;2023-10-13T06:18:43;100102.34;;;16.31;68.26
26531;BME280;14201;43.188;24.160;2023-10-13T06:21:27;100105.59;;;16.54;67.12
26531;BME280;14201;43.188;24.160;2023-10-13T06:24:11;100105.31;;;16.79;68.08
26531;BME280;14201;43.188;24.160;2023-10-13T06:26:55;100103.13;;;16.96;66.30
26531;BME280;14201;43.188;24.160;2023-10-13T06:29:39;100102.81;;;17.20;66.35
26531;BME280;14201;43.188;24.160;2023-10-13T06:32:06;100105.06;;;17.42;64.68
26531;BME280;14201;43.188;24.160;2023-10-13T06:34:38;100105.59;;;17.67;65.35
26531;BME280;14201;43.188;24.160;2023-10-13T06:37:16;100107.94;;;17.94;65.45
26531;BME280;14201;43.188;24.160;2023-10-13T06:39:51;100096.97;;;18.17;63.71
26531;BME280;14201;43.188;24.160;2023-10-13T06:42:18;100110.09;;;18.14;62.60
26531;BME280;14201;43.188;24.160;2023-10-13T06:44:45;100099.66;;;18.20;63.87
26531;BME280;14201;43.188;24.160;2023-10-13T06:47:11;100104.41;;;18.39;63.39
26531;BME280;14201;43.188;24.160;2023-10-13T06:49:37;100096.59;;;18.44;62.17
26531;BME280;14201;43.188;24.160;2023-10-13T06:52:04;100101.44;;;18.73;61.24
26531;BME280;14201;43.188;24.160;2023-10-13T06:54:32;100093.19;;;19.03;61.46
26531;BME280;14201;43.188;24.160;2023-10-13T06:57:02;100091.75;;;19.26;58.82
26531;BME280;14201;43.188;24.160;2023-10-13T06:59:34;100084.22;;;19.56;58.65
26531;BME280;14201;43.188;24.160;2023-10-13T07:02:04;100080.22;;;19.84;57.57
26531;BME280;14201;43.188;24.160;2023-10-13T07:04:34;100091.16;;;20.18;57.33
26531;BME280;14201;43.188;24.160;2023-10-13T07:07:00;100093.25;;;20.50;55.48
26531;BME280;14201;43.188;24.160;2023-10-13T07:09:31;100081.13;;;20.73;54.93
26531;BME280;14201;43.188;24.160;2023-10-13T07:11:59;100082.16;;;20.92;53.30
26531;BME280;14201;43.188;24.160;2023-10-13T07:14:26;100084.00;;;21.07;53.97
26531;BME280;14201;43.188;24.160;2023-10-13T07:17:02;100089.44;;;21.21;53.25
26531;BME280;14201;43.188;24.160;2023-10-13T07:19:30;100090.41;;;21.38;52.65
26531;BME280;14201;43.188;24.160;2023-10-13T07:21:56;100093.19;;;21.58;52.28
26531;BME280;14201;43.188;24.160;2023-10-13T07:24:28;100084.44;;;21.82;50.68
26531;BME280;14201;43.188;24.160;2023-10-13T07:26:57;100090.72;;;22.14;50.10
26531;BME280;14201;43.188;24.160;2023-10-13T07:29:28;100093.44;;;22.37;48.65
26531;BME280;14201;43.188;24.160;2023-10-13T07:31:54;100097.03;;;22.65;48.27
26531;BME280;14201;43.188;24.160;2023-10-13T07:34:19;100101.44;;;22.91;47.49
26531;BME280;14201;43.188;24.160;2023-10-13T07:36:57;100098.72;;;23.43;46.50
26531;BME280;14201;43.188;24.160;2023-10-13T07:39:28;100087.13;;;23.75;45.05
26531;BME280;14201;43.188;24.160;2023-10-13T07:41:59;100089.66;;;24.04;43.74
26531;BME280;14201;43.188;24.160;2023-10-13T07:44:44;100095.75;;;24.23;43.35
26531;BME280;14201;43.188;24.160;2023-10-13T07:47:13;100086.88;;;24.21;43.47
26531;BME280;14201;43.188;24.160;2023-10-13T07:49:39;100086.75;;;24.41;42.76
26531;BME280;14201;43.188;24.160;2023-10-13T07:52:06;100088.47;;;24.53;42.39
26531;BME280;14201;43.188;24.160;2023-10-13T07:54:52;100091.78;;;24.81;42.44
26531;BME280;14201;43.188;24.160;2023-10-13T07:57:39;100095.19;;;25.00;42.08
26531;BME280;14201;43.188;24.160;2023-10-13T08:00:21;100087.94;;;25.14;41.67
26531;BME280;14201;43.188;24.160;2023-10-13T08:03:05;100089.56;;;25.31;40.37
26531;BME280;14201;43.188;24.160;2023-10-13T08:05:42;100090.34;;;25.41;40.25
26531;BME280;14201;43.188;24.160;2023-10-13T08:08:23;100097.41;;;25.48;40.10
26531;BME280;14201;43.188;24.160;2023-10-13T08:10:51;100099.19;;;25.46;39.49
26531;BME280;14201;43.188;24.160;2023-10-13T08:13:21;100101.69;;;25.60;40.16
26531;BME280;14201;43.188;24.160;2023-10-13T08:15:47;100095.25;;;25.78;39.29
26531;BME280;14201;43.188;24.160;2023-10-13T08:18:13;100094.16;;;25.96;41.54
26531;BME280;14201;43.188;24.160;2023-10-13T08:20:56;100100.13;;;26.13;39.47
26531;BME280;14201;43.188;24.160;2023-10-13T08:23:28;100093.59;;;26.34;38.07
26531;BME280;14201;43.188;24.160;2023-10-13T08:26:13;100088.97;;;26.48;36.16
26531;BME280;14201;43.188;24.160;2023-10-13T08:28:55;100101.97;;;26.71;35.86
26531;BME280;14201;43.188;24.160;2023-10-13T08:31:22;100090.97;;;26.88;35.62
26531;BME280;14201;43.188;24.160;2023-10-13T08:33:48;100091.56;;;27.06;35.12
26531;BME280;14201;43.188;24.160;2023-10-13T08:36:14;100086.78;;;27.25;34.57
26531;BME280;14201;43.188;24.160;2023-10-13T08:38:56;100090.28;;;27.28;33.52
26531;BME280;14201;43.188;24.160;2023-10-13T08:41:22;100085.50;;;27.46;33.87
26531;BME280;14201;43.188;24.160;2023-10-13T08:43:47;100087.00;;;27.61;33.57
26531;BME280;14201;43.188;24.160;2023-10-13T08:46:29;100084.22;;;27.64;33.66
26531;BME280;14201;43.188;24.160;2023-10-13T08:48:59;100087.38;;;27.84;33.63
26531;BME280;14201;43.188;24.160;2023-10-13T08:51:43;100074.19;;;28.17;33.23
26531;BME280;14201;43.188;24.160;2023-10-13T08:54:15;100077.72;;;28.58;32.60
26531;BME280;14201;43.188;24.160;2023-10-13T08:56:59;100071.38;;;28.97;31.92
26531;BME280;14201;43.188;24.160;2023-10-13T08:59:31;100066.31;;;29.19;30.29
26531;BME280;14201;43.188;24.160;2023-10-13T09:02:18;100071.00;;;29.11;29.27
26531;BME280;14201;43.188;24.160;2023-10-13T09:04:44;100066.22;;;29.55;29.10
26531;BME280;14201;43.188;24.160;2023-10-13T09:07:10;100061.50;;;29.63;28.34
26531;BME280;14201;43.188;24.160;2023-10-13T09:14:40;100062.50;;;29.59;28.80
26531;BME280;14201;43.188;24.160;2023-10-13T09:17:12;100061.63;;;29.58;29.36
26531;BME280;14201;43.188;24.160;2023-10-13T09:19:59;100063.97;;;29.71;29.19
26531;BME280;14201;43.188;24.160;2023-10-13T09:22:37;100061.41;;;29.35;29.02
26531;BME280;14201;43.188;24.160;2023-10-13T09:25:02;100057.66;;;29.08;29.40
26531;BME280;14201;43.188;24.160;2023-10-13T09:27:30;100065.69;;;29.08;29.84
26531;BME280;14201;43.188;24.160;2023-10-13T09:29:58;100065.31;;;29.23;30.30
26531;BME280;14201;43.188;24.160;2023-10-13T09:32:42;100064.81;;;29.41;29.74
26531;BME280;14201;43.188;24.160;2023-10-13T09:35:16;100070.66;;;29.56;30.66
26531;BME280;14201;43.188;24.160;2023-10-13T09:37:42;100068.38;;;29.73;30.23
26531;BME280;14201;43.188;24.160;2023-10-13T09:40:12;100068.00;;;29.86;29.93
26531;BME280;14201;43.188;24.160;2023-10-13T09:42:50;100067.66;;;29.98;29.06
26531;BME280;14201;43.188;24.160;2023-10-13T09:45:16;100068.13;;;30.11;29.00
26531;BME280;14201;43.188;24.160;2023-10-13T09:47:44;100068.41;;;30.30;28.79
26531;BME280;14201;43.188;24.160;2023-10-13T09:50:12;100057.25;;;30.43;27.83
26531;BME280;14201;43.188;24.160;2023-10-13T09:52:49;100062.13;;;30.59;28.68
26531;BME280;14201;43.188;24.160;2023-10-13T09:55:23;100065.72;;;30.59;28.45
26531;BME280;14201;43.188;24.160;2023-10-13T09:57:58;100058.56;;;30.58;29.08
26531;BME280;14201;43.188;24.160;2023-10-13T10:00:34;100049.25;;;30.69;29.26
26531;BME280;14201;43.188;24.160;2023-10-13T10:03:22;100049.16;;;30.72;29.07
26531;BME280;14201;43.188;24.160;2023-10-13T10:06:00;100041.94;;;30.72;29.09
26531;BME280;14201;43.188;24.160;2023-10-13T10:08:39;100052.34;;;30.83;28.82
26531;BME280;14201;43.188;24.160;2023-10-13T10:11:30;100044.22;;;30.85;29.16
26531;BME280;14201;43.188;24.160;2023-10-13T10:16:51;100043.47;;;30.54;29.17
26531;BME280;14201;43.188;24.160;2023-10-13T10:19:25;100043.44;;;30.26;29.89
26531;BME280;14201;43.188;24.160;2023-10-13T10:22:01;100047.91;;;29.38;30.40
26531;BME280;14201;43.188;24.160;2023-10-13T10:24:42;100038.19;;;29.34;31.99
26531;BME280;14201;43.188;24.160;2023-10-13T10:27:08;100042.31;;;29.77;30.58
26531;BME280;14201;43.188;24.160;2023-10-13T10:29:40;100039.56;;;30.08;30.35
26531;BME280;14201;43.188;24.160;2023-10-13T10:32:13;100043.06;;;30.40;29.54
26531;BME280;14201;43.188;24.160;2023-10-13T10:34:38;100045.25;;;30.26;29.00
26531;BME280;14201;43.188;24.160;2023-10-13T10:37:04;100044.88;;;30.38;29.44
26531;BME280;14201;43.188;24.160;2023-10-13T10:39:37;100041.50;;;30.59;29.87
26531;BME280;14201;43.188;24.160;2023-10-13T10:42:12;100036.66;;;30.96;28.73
26531;BME280;14201;43.188;24.160;2023-10-13T10:44:43;100040.06;;;31.26;28.58
26531;BME280;14201;43.188;24.160;2023-10-13T10:47:13;100042.66;;;31.54;28.39
26531;BME280;14201;43.188;24.160;2023-10-13T10:49:55;100032.50;;;31.85;27.60
26531;BME280;14201;43.188;24.160;2023-10-13T10:52:21;100038.50;;;31.69;26.73
26531;BME280;14201;43.188;24.160;2023-10-13T10:54:59;100036.25;;;31.33;27.89
26531;BME280;14201;43.188;24.160;2023-10-13T10:57:24;100026.72;;;31.48;28.01
26531;BME280;14201;43.188;24.160;2023-10-13T10:59:54;100033.56;;;31.81;28.05
26531;BME280;14201;43.188;24.160;2023-10-13T11:02:39;100020.25;;;31.99;26.97
26531;BME280;14201;43.188;24.160;2023-10-13T11:05:06;100017.28;;;32.07;26.98
26531;BME280;14201;43.188;24.160;2023-10-13T11:07:32;100016.34;;;32.30;27.22
26531;BME280;14201;43.188;24.160;2023-10-13T11:10:10;100005.84;;;32.45;27.00
26531;BME280;14201;43.188;24.160;2023-10-13T11:12:59;100017.63;;;32.64;26.24
26531;BME280;14201;43.188;24.160;2023-10-13T11:15:43;100011.09;;;32.70;26.67
26531;BME280;14201;43.188;24.160;2023-10-13T11:18:12;100003.28;;;32.84;26.02
26531;BME280;14201;43.188;24.160;2023-10-13T11:21:01;100005.72;;;32.90;26.51
26531;BME280;14201;43.188;24.160;2023-10-13T11:23:33;99997.66;;;32.68;26.33
26531;BME280;14201;43.188;24.160;2023-10-13T11:26:02;100007.72;;;32.85;26.38
26531;BME280;14201;43.188;24.160;2023-10-13T11:28:30;99991.44;;;33.07;26.28
26531;BME280;14201;43.188;24.160;2023-10-13T11:30:58;99997.88;;;33.25;26.10
26531;BME280;14201;43.188;24.160;2023-10-13T11:33:27;99991.28;;;32.71;26.06
26531;BME280;14201;43.188;24.160;2023-10-13T11:35:57;99995.19;;;32.84;26.08
26531;BME280;14201;43.188;24.160;2023-10-13T11:38:31;99995.91;;;33.08;25.52
26531;BME280;14201;43.188;24.160;2023-10-13T11:41:06;99986.41;;;33.20;25.87
26531;BME280;14201;43.188;24.160;2023-10-13T11:43:50;99981.78;;;33.22;25.16
26531;BME280;14201;43.188;24.160;2023-10-13T11:46:21;99977.13;;;33.26;24.97
26531;BME280;14201;43.188;24.160;2023-10-13T11:49:05;99973.94;;;33.37;25.22
26531;BME280;14201;43.188;24.160;2023-10-13T11:51:46;99977.88;;;33.09;25.68
26531;BME280;14201;43.188;24.160;2023-10-13T11:54:19;99977.00;;;33.29;25.17
26531;BME280;14201;43.188;24.160;2023-10-13T11:56:45;99978.38;;;33.38;25.29
26531;BME280;14201;43.188;24.160;2023-10-13T11:59:11;99981.66;;;33.44;25.37
26531;BME280;14201;43.188;24.160;2023-10-13T12:01:45;99976.63;;;33.55;25.02
26531;BME280;14201;43.188;24.160;2023-10-13T12:04:29;99976.72;;;33.35;25.14
26531;BME280;14201;43.188;24.160;2023-10-13T12:07:05;99970.56;;;33.31;25.13
26531;BME280;14201;43.188;24.160;2023-10-13T12:10:05;99976.63;;;33.18;25.26
26531;BME280;14201;43.188;24.160;2023-10-13T12:12:32;99978.56;;;32.93;24.77
26531;BME280;14201;43.188;24.160;2023-10-13T12:15:06;99963.47;;;32.47;25.52
26531;BME280;14201;43.188;24.160;2023-10-13T12:17:35;99966.56;;;32.17;25.31
26531;BME280;14201;43.188;24.160;2023-10-13T12:20:02;99961.22;;;32.15;26.03
26531;BME280;14201;43.188;24.160;2023-10-13T12:22:31;99965.00;;;32.11;25.76
26531;BME280;14201;43.188;24.160;2023-10-13T12:25:09;99966.53;;;31.49;26.63
26531;BME280;14201;43.188;24.160;2023-10-13T12:27:52;99961.31;;;31.90;26.92
26531;BME280;14201;43.188;24.160;2023-10-13T12:30:22;99969.00;;;31.77;25.29
26531;BME280;14201;43.188;24.160;2023-10-13T12:33:01;99957.09;;;31.61;25.81
26531;BME280;14201;43.188;24.160;2023-10-13T12:35:36;99962.59;;;31.82;26.11
26531;BME280;14201;43.188;24.160;2023-10-13T12:38:22;99965.09;;;31.86;26.14
26531;BME280;14201;43.188;24.160;2023-10-13T12:41:06;99943.25;;;31.92;25.75
26531;BME280;14201;43.188;24.160;2023-10-13T12:43:50;99958.16;;;32.03;25.50
26531;BME280;14201;43.188;24.160;2023-10-13T12:46:34;99952.91;;;31.98;25.75
26531;BME280;14201;43.188;24.160;2023-10-13T12:49:18;99959.97;;;32.02;25.73
26531;BME280;14201;43.188;24.160;2023-10-13T12:52:02;99946.72;;;31.96;26.03
26531;BME280;14201;43.188;24.160;2023-10-13T12:54:28;99950.47;;;31.92;25.29
26531;BME280;14201;43.188;24.160;2023-10-13T12:57:01;99949.06;;;31.59;25.74
26531;BME280;14201;43.188;24.160;2023-10-13T12:59:28;99949.94;;;31.60;25.97
26531;BME280;14201;43.188;24.160;2023-10-13T13:01:54;99938.50;;;31.55;25.99
26531;BME280;14201;43.188;24.160;2023-10-13T13:04:19;99937.69;;;31.53;26.62
26531;BME280;14201;43.188;24.160;2023-10-13T13:06:46;99937.69;;;31.53;26.62
26531;BME280;14201;43.188;24.160;2023-10-13T13:09:12;99940.38;;;31.53;26.35
26531;BME280;14201;43.188;24.160;2023-10-13T13:11:38;99939.81;;;31.43;26.22
26531;BME280;14201;43.188;24.160;2023-10-13T13:14:08;99945.97;;;31.23;26.15
26531;BME280;14201;43.188;24.160;2023-10-13T13:16:35;99939.22;;;31.11;27.27
26531;BME280;14201;43.188;24.160;2023-10-13T13:19:01;99935.19;;;30.99;26.63
26531;BME280;14201;43.188;24.160;2023-10-13T13:21:38;99938.66;;;31.03;27.12
26531;BME280;14201;43.188;24.160;2023-10-13T13:24:05;99942.91;;;30.84;27.10
26531;BME280;14201;43.188;24.160;2023-10-13T13:26:39;99935.94;;;30.78;27.43
26531;BME280;14201;43.188;24.160;2023-10-13T13:29:07;99948.19;;;30.87;27.43
26531;BME280;14201;43.188;24.160;2023-10-13T13:31:36;99944.31;;;30.95;26.93
26531;BME280;14201;43.188;24.160;2023-10-13T13:34:10;99941.56;;;30.97;26.72
26531;BME280;14201;43.188;24.160;2023-10-13T13:36:36;99940.69;;;30.96;26.86